sensor_id;sensor_type;location;lat;lon;timestamp;P1;durP1;ratioP1;P2;durP2;ratioP2
11614;SDS011;5863;52.832;4.758;2022-09-25T00:00:44;3.88;;;1.17;;
11614;SDS011;5863;52.832;4.758;2022-09-25T00:03:12;3.25;;;1.17;;
11614;SDS011;5863;52.832;4.758;2022-09-25T00:05:40;4.88;;;1.60;;
11614;SDS011;5863;52.832;4.758;2022-09-25T00:08:08;3.80;;;1.27;;
11614;SDS011;5863;52.832;4.758;2022-09-25T00:10:40;3.53;;;1.38;;
11614;SDS011;5863;52.832;4.758;2022-09-25T00:13:08;9.02;;;1.73;;
11614;SDS011;5863;52.832;4.758;2022-09-25T00:15:35;2.80;;;1.30;;
11614;SDS011;5863;52.832;4.758;2022-09-25T00:18:02;2.38;;;1.25;;
11614;SDS011;5863;52.832;4.758;2022-09-25T00:20:29;2.42;;;1.00;;
11614;SDS011;5863;52.832;4.758;2022-09-25T00:22:55;3.83;;;1.20;;
11614;SDS011;5863;52.832;4.758;2022-09-25T00:25:24;3.90;;;1.00;;
11614;SDS011;5863;52.832;4.758;2022-09-25T00:27:53;5.88;;;1.13;;
11614;SDS011;5863;52.832;4.758;2022-09-25T00:30:20;3.00;;;1.20;;
11614;SDS011;5863;52.832;4.758;2022-09-25T00:32:47;5.40;;;1.40;;
11614;SDS011;5863;52.832;4.758;2022-09-25T00:35:14;3.45;;;1.27;;
11614;SDS011;5863;52.832;4.758;2022-09-25T00:37:41;2.25;;;1.30;;
11614;SDS011;5863;52.832;4.758;2022-09-25T00:40:08;2.97;;;1.50;;
11614;SDS011;5863;52.832;4.758;2022-09-25T00:42:35;3.53;;;1.50;;
11614;SDS011;5863;52.832;4.758;2022-09-25T00:45:04;3.92;;;1.80;;
11614;SDS011;5863;52.832;4.758;2022-09-25T00:47:43;2.17;;;1.60;;
11614;SDS011;5863;52.832;4.758;2022-09-25T00:50:19;4.97;;;1.58;;
11614;SDS011;5863;52.832;4.758;2022-09-25T00:52:51;3.65;;;1.27;;
11614;SDS011;5863;52.832;4.758;2022-09-25T00:55:21;2.95;;;1.50;;
11614;SDS011;5863;52.832;4.758;2022-09-25T00:57:49;5.22;;;1.77;;
11614;SDS011;5863;52.832;4.758;2022-09-25T01:00:20;5.28;;;1.58;;
11614;SDS011;5863;52.832;4.758;2022-09-25T01:02:50;4.10;;;1.25;;
11614;SDS011;5863;52.832;4.758;2022-09-25T01:05:19;7.05;;;1.33;;
11614;SDS011;5863;52.832;4.758;2022-09-25T01:07:49;3.50;;;1.05;;
11614;SDS011;5863;52.832;4.758;2022-09-25T01:10:17;2.13;;;1.10;;
11614;SDS011;5863;52.832;4.758;2022-09-25T01:12:46;2.78;;;0.93;;
11614;SDS011;5863;52.832;4.758;2022-09-25T01:15:15;3.13;;;1.08;;
11614;SDS011;5863;52.832;4.758;2022-09-25T01:17:47;3.03;;;0.98;;
11614;SDS011;5863;52.832;4.758;2022-09-25T01:20:24;2.78;;;1.00;;
11614;SDS011;5863;52.832;4.758;2022-09-25T01:23:06;3.00;;;1.00;;
11614;SDS011;5863;52.832;4.758;2022-09-25T01:25:46;4.95;;;1.27;;
11614;SDS011;5863;52.832;4.758;2022-09-25T01:28:35;4.35;;;1.20;;
11614;SDS011;5863;52.832;4.758;2022-09-25T01:31:24;3.60;;;1.17;;
11614;SDS011;5863;52.832;4.758;2022-09-25T01:33:59;1.92;;;0.90;;
11614;SDS011;5863;52.832;4.758;2022-09-25T01:36:32;6.35;;;1.17;;
11614;SDS011;5863;52.832;4.758;2022-09-25T01:39:05;4.05;;;1.20;;
11614;SDS011;5863;52.832;4.758;2022-09-25T01:41:39;2.45;;;0.90;;
11614;SDS011;5863;52.832;4.758;2022-09-25T01:44:15;3.65;;;1.00;;
11614;SDS011;5863;52.832;4.758;2022-09-25T01:46:46;2.75;;;0.90;;
11614;SDS011;5863;52.832;4.758;2022-09-25T01:49:18;2.35;;;1.00;;
11614;SDS011;5863;52.832;4.758;2022-09-25T01:51:52;2.85;;;1.00;;
11614;SDS011;5863;52.832;4.758;2022-09-25T01:54:21;3.88;;;1.15;;
11614;SDS011;5863;52.832;4.758;2022-09-25T01:56:53;7.93;;;1.17;;
11614;SDS011;5863;52.832;4.758;2022-09-25T01:59:26;3.15;;;1.00;;
11614;SDS011;5863;52.832;4.758;2022-09-25T02:02:00;4.68;;;1.20;;
11614;SDS011;5863;52.832;4.758;2022-09-25T02:04:33;6.82;;;0.98;;
11614;SDS011;5863;52.832;4.758;2022-09-25T02:07:03;5.03;;;0.95;;
11614;SDS011;5863;52.832;4.758;2022-09-25T02:09:33;4.05;;;1.17;;
11614;SDS011;5863;52.832;4.758;2022-09-25T02:12:04;1.70;;;0.93;;
11614;SDS011;5863;52.832;4.758;2022-09-25T02:14:36;2.55;;;0.95;;
11614;SDS011;5863;52.832;4.758;2022-09-25T02:17:07;4.32;;;1.20;;
11614;SDS011;5863;52.832;4.758;2022-09-25T02:19:37;2.63;;;1.02;;
11614;SDS011;5863;52.832;4.758;2022-09-25T02:22:22;3.35;;;1.75;;
11614;SDS011;5863;52.832;4.758;2022-09-25T02:24:54;9.75;;;2.88;;
11614;SDS011;5863;52.832;4.758;2022-09-25T02:27:29;6.18;;;2.53;;
11614;SDS011;5863;52.832;4.758;2022-09-25T02:29:57;8.35;;;2.28;;
11614;SDS011;5863;52.832;4.758;2022-09-25T02:32:24;5.97;;;2.25;;
11614;SDS011;5863;52.832;4.758;2022-09-25T02:34:54;6.40;;;1.73;;
11614;SDS011;5863;52.832;4.758;2022-09-25T02:37:22;5.47;;;1.70;;
11614;SDS011;5863;52.832;4.758;2022-09-25T02:39:49;3.45;;;1.70;;
11614;SDS011;5863;52.832;4.758;2022-09-25T02:42:23;4.63;;;1.27;;
11614;SDS011;5863;52.832;4.758;2022-09-25T02:45:08;3.78;;;1.40;;
11614;SDS011;5863;52.832;4.758;2022-09-25T02:47:43;1.88;;;1.00;;
11614;SDS011;5863;52.832;4.758;2022-09-25T02:50:21;5.10;;;1.50;;
11614;SDS011;5863;52.832;4.758;2022-09-25T02:52:54;2.28;;;1.00;;
11614;SDS011;5863;52.832;4.758;2022-09-25T02:55:29;3.08;;;1.27;;
11614;SDS011;5863;52.832;4.758;2022-09-25T02:58:03;1.85;;;0.95;;
11614;SDS011;5863;52.832;4.758;2022-09-25T03:00:35;3.65;;;1.40;;
11614;SDS011;5863;52.832;4.758;2022-09-25T03:03:03;3.72;;;1.30;;
11614;SDS011;5863;52.832;4.758;2022-09-25T03:05:34;4.40;;;1.23;;
11614;SDS011;5863;52.832;4.758;2022-09-25T03:08:02;4.10;;;1.50;;
11614;SDS011;5863;52.832;4.758;2022-09-25T03:10:47;3.30;;;1.33;;
11614;SDS011;5863;52.832;4.758;2022-09-25T03:13:14;5.88;;;1.33;;
11614;SDS011;5863;52.832;4.758;2022-09-25T03:15:45;2.17;;;1.20;;
11614;SDS011;5863;52.832;4.758;2022-09-25T03:18:15;4.03;;;1.20;;
11614;SDS011;5863;52.832;4.758;2022-09-25T03:20:42;2.70;;;1.30;;
11614;SDS011;5863;52.832;4.758;2022-09-25T03:23:09;3.70;;;1.40;;
11614;SDS011;5863;52.832;4.758;2022-09-25T03:25:36;2.80;;;1.67;;
11614;SDS011;5863;52.832;4.758;2022-09-25T03:28:06;6.05;;;2.13;;
11614;SDS011;5863;52.832;4.758;2022-09-25T03:30:35;4.60;;;1.98;;
11614;SDS011;5863;52.832;4.758;2022-09-25T03:33:03;4.85;;;1.70;;
11614;SDS011;5863;52.832;4.758;2022-09-25T03:35:30;3.72;;;1.63;;
11614;SDS011;5863;52.832;4.758;2022-09-25T03:37:57;3.22;;;1.38;;
11614;SDS011;5863;52.832;4.758;2022-09-25T03:40:24;1.77;;;1.23;;
11614;SDS011;5863;52.832;4.758;2022-09-25T03:42:50;2.60;;;1.25;;
11614;SDS011;5863;52.832;4.758;2022-09-25T03:45:17;1.98;;;1.25;;
11614;SDS011;5863;52.832;4.758;2022-09-25T03:47:43;3.13;;;0.93;;
11614;SDS011;5863;52.832;4.758;2022-09-25T03:50:11;3.58;;;1.13;;
11614;SDS011;5863;52.832;4.758;2022-09-25T03:52:38;4.10;;;1.48;;
11614;SDS011;5863;52.832;4.758;2022-09-25T03:55:05;3.53;;;1.30;;
11614;SDS011;5863;52.832;4.758;2022-09-25T03:57:32;4.65;;;1.35;;
11614;SDS011;5863;52.832;4.758;2022-09-25T04:00:00;3.25;;;1.65;;
11614;SDS011;5863;52.832;4.758;2022-09-25T04:02:27;4.85;;;1.88;;
11614;SDS011;5863;52.832;4.758;2022-09-25T04:04:54;5.68;;;2.03;;
11614;SDS011;5863;52.832;4.758;2022-09-25T04:07:22;6.78;;;1.80;;
11614;SDS011;5863;52.832;4.758;2022-09-25T04:09:49;6.88;;;2.10;;
11614;SDS011;5863;52.832;4.758;2022-09-25T04:12:16;7.82;;;2.10;;
11614;SDS011;5863;52.832;4.758;2022-09-25T04:14:43;6.50;;;1.90;;
11614;SDS011;5863;52.832;4.758;2022-09-25T04:17:10;6.90;;;2.00;;
11614;SDS011;5863;52.832;4.758;2022-09-25T04:19:37;5.55;;;1.50;;
11614;SDS011;5863;52.832;4.758;2022-09-25T04:22:04;2.83;;;1.42;;
11614;SDS011;5863;52.832;4.758;2022-09-25T04:24:32;3.83;;;1.65;;
11614;SDS011;5863;52.832;4.758;2022-09-25T04:27:14;3.33;;;1.35;;
11614;SDS011;5863;52.832;4.758;2022-09-25T04:29:43;5.70;;;1.52;;
11614;SDS011;5863;52.832;4.758;2022-09-25T04:32:10;4.93;;;1.45;;
11614;SDS011;5863;52.832;4.758;2022-09-25T04:34:54;5.30;;;1.38;;
11614;SDS011;5863;52.832;4.758;2022-09-25T04:37:22;2.67;;;1.00;;
11614;SDS011;5863;52.832;4.758;2022-09-25T04:39:51;2.67;;;0.90;;
11614;SDS011;5863;52.832;4.758;2022-09-25T04:42:18;3.95;;;1.00;;
11614;SDS011;5863;52.832;4.758;2022-09-25T04:44:48;2.38;;;1.02;;
11614;SDS011;5863;52.832;4.758;2022-09-25T04:47:16;2.92;;;0.88;;
11614;SDS011;5863;52.832;4.758;2022-09-25T04:49:43;3.55;;;1.20;;
11614;SDS011;5863;52.832;4.758;2022-09-25T04:52:10;3.22;;;1.15;;
11614;SDS011;5863;52.832;4.758;2022-09-25T04:54:37;6.07;;;1.10;;
11614;SDS011;5863;52.832;4.758;2022-09-25T04:57:05;3.63;;;1.10;;
11614;SDS011;5863;52.832;4.758;2022-09-25T04:59:31;2.08;;;1.20;;
11614;SDS011;5863;52.832;4.758;2022-09-25T05:01:58;3.45;;;1.08;;
11614;SDS011;5863;52.832;4.758;2022-09-25T05:04:25;1.50;;;0.93;;
11614;SDS011;5863;52.832;4.758;2022-09-25T05:06:52;5.47;;;0.98;;
11614;SDS011;5863;52.832;4.758;2022-09-25T05:09:19;4.28;;;1.10;;
11614;SDS011;5863;52.832;4.758;2022-09-25T05:11:46;4.10;;;1.20;;
11614;SDS011;5863;52.832;4.758;2022-09-25T05:14:14;2.78;;;1.05;;
11614;SDS011;5863;52.832;4.758;2022-09-25T05:16:41;4.32;;;1.38;;
11614;SDS011;5863;52.832;4.758;2022-09-25T05:19:07;2.95;;;1.33;;
11614;SDS011;5863;52.832;4.758;2022-09-25T05:21:34;4.35;;;1.15;;
11614;SDS011;5863;52.832;4.758;2022-09-25T05:24:01;3.33;;;1.20;;
11614;SDS011;5863;52.832;4.758;2022-09-25T05:26:28;2.05;;;0.80;;
11614;SDS011;5863;52.832;4.758;2022-09-25T05:28:55;5.32;;;1.25;;
11614;SDS011;5863;52.832;4.758;2022-09-25T05:31:23;2.03;;;1.00;;
11614;SDS011;5863;52.832;4.758;2022-09-25T05:33:50;3.45;;;1.20;;
11614;SDS011;5863;52.832;4.758;2022-09-25T05:36:18;5.15;;;1.20;;
11614;SDS011;5863;52.832;4.758;2022-09-25T05:38:45;3.85;;;1.35;;
11614;SDS011;5863;52.832;4.758;2022-09-25T05:41:12;3.38;;;1.25;;
11614;SDS011;5863;52.832;4.758;2022-09-25T05:43:40;5.05;;;1.55;;
11614;SDS011;5863;52.832;4.758;2022-09-25T05:46:07;4.57;;;1.27;;
11614;SDS011;5863;52.832;4.758;2022-09-25T05:48:37;3.85;;;1.42;;
11614;SDS011;5863;52.832;4.758;2022-09-25T05:51:04;3.90;;;1.05;;
11614;SDS011;5863;52.832;4.758;2022-09-25T05:53:31;2.90;;;1.40;;
11614;SDS011;5863;52.832;4.758;2022-09-25T05:55:58;2.58;;;1.30;;
11614;SDS011;5863;52.832;4.758;2022-09-25T05:58:26;3.05;;;0.90;;
11614;SDS011;5863;52.832;4.758;2022-09-25T06:00:54;6.45;;;1.50;;
11614;SDS011;5863;52.832;4.758;2022-09-25T06:03:24;1.95;;;0.90;;
11614;SDS011;5863;52.832;4.758;2022-09-25T06:05:56;3.13;;;1.50;;
11614;SDS011;5863;52.832;4.758;2022-09-25T06:08:23;2.70;;;1.20;;
11614;SDS011;5863;52.832;4.758;2022-09-25T06:10:51;1.30;;;1.15;;
11614;SDS011;5863;52.832;4.758;2022-09-25T06:13:21;4.20;;;1.30;;
11614;SDS011;5863;52.832;4.758;2022-09-25T06:15:49;4.13;;;1.30;;
11614;SDS011;5863;52.832;4.758;2022-09-25T06:18:17;2.97;;;1.42;;
11614;SDS011;5863;52.832;4.758;2022-09-25T06:20:45;6.85;;;1.42;;
11614;SDS011;5863;52.832;4.758;2022-09-25T06:23:13;5.32;;;1.40;;
11614;SDS011;5863;52.832;4.758;2022-09-25T06:25:42;3.30;;;1.25;;
11614;SDS011;5863;52.832;4.758;2022-09-25T06:28:09;1.25;;;1.00;;
11614;SDS011;5863;52.832;4.758;2022-09-25T06:30:37;2.25;;;1.00;;
11614;SDS011;5863;52.832;4.758;2022-09-25T06:33:04;3.28;;;1.23;;
11614;SDS011;5863;52.832;4.758;2022-09-25T06:35:33;2.53;;;1.02;;
11614;SDS011;5863;52.832;4.758;2022-09-25T06:38:01;3.38;;;1.30;;
11614;SDS011;5863;52.832;4.758;2022-09-25T06:40:30;2.42;;;1.08;;
11614;SDS011;5863;52.832;4.758;2022-09-25T06:42:57;3.55;;;1.00;;
11614;SDS011;5863;52.832;4.758;2022-09-25T06:45:26;2.17;;;1.00;;
11614;SDS011;5863;52.832;4.758;2022-09-25T06:47:59;4.07;;;1.10;;
11614;SDS011;5863;52.832;4.758;2022-09-25T06:50:28;4.43;;;1.10;;
11614;SDS011;5863;52.832;4.758;2022-09-25T06:52:59;5.28;;;1.65;;
11614;SDS011;5863;52.832;4.758;2022-09-25T06:55:26;3.03;;;1.05;;
11614;SDS011;5863;52.832;4.758;2022-09-25T06:57:54;2.92;;;1.10;;
11614;SDS011;5863;52.832;4.758;2022-09-25T07:00:21;5.32;;;1.42;;
11614;SDS011;5863;52.832;4.758;2022-09-25T07:02:47;4.70;;;1.10;;
11614;SDS011;5863;52.832;4.758;2022-09-25T07:05:38;2.55;;;1.25;;
11614;SDS011;5863;52.832;4.758;2022-09-25T07:08:07;1.75;;;1.33;;
11614;SDS011;5863;52.832;4.758;2022-09-25T07:10:34;1.25;;;0.90;;
11614;SDS011;5863;52.832;4.758;2022-09-25T07:13:02;3.83;;;1.10;;
11614;SDS011;5863;52.832;4.758;2022-09-25T07:15:29;1.92;;;0.80;;
11614;SDS011;5863;52.832;4.758;2022-09-25T07:17:55;2.85;;;0.88;;
11614;SDS011;5863;52.832;4.758;2022-09-25T07:20:22;3.75;;;1.20;;
11614;SDS011;5863;52.832;4.758;2022-09-25T07:22:49;1.60;;;0.93;;
11614;SDS011;5863;52.832;4.758;2022-09-25T07:25:18;2.35;;;1.00;;
11614;SDS011;5863;52.832;4.758;2022-09-25T07:27:45;3.58;;;1.52;;
11614;SDS011;5863;52.832;4.758;2022-09-25T07:30:13;2.45;;;1.00;;
11614;SDS011;5863;52.832;4.758;2022-09-25T07:32:42;3.28;;;0.90;;
11614;SDS011;5863;52.832;4.758;2022-09-25T07:35:09;2.97;;;0.98;;
11614;SDS011;5863;52.832;4.758;2022-09-25T07:37:36;2.85;;;0.80;;
11614;SDS011;5863;52.832;4.758;2022-09-25T07:40:03;1.52;;;0.75;;
11614;SDS011;5863;52.832;4.758;2022-09-25T07:42:30;1.75;;;0.85;;
11614;SDS011;5863;52.832;4.758;2022-09-25T07:44:57;1.50;;;0.85;;
11614;SDS011;5863;52.832;4.758;2022-09-25T07:47:25;2.17;;;0.80;;
11614;SDS011;5863;52.832;4.758;2022-09-25T07:49:51;4.05;;;1.08;;
11614;SDS011;5863;52.832;4.758;2022-09-25T07:52:18;2.25;;;0.80;;
11614;SDS011;5863;52.832;4.758;2022-09-25T07:54:45;2.55;;;0.82;;
11614;SDS011;5863;52.832;4.758;2022-09-25T07:57:12;1.60;;;0.95;;
11614;SDS011;5863;52.832;4.758;2022-09-25T07:59:39;1.48;;;0.98;;
11614;SDS011;5863;52.832;4.758;2022-09-25T08:02:05;4.05;;;0.98;;
11614;SDS011;5863;52.832;4.758;2022-09-25T08:04:35;2.45;;;0.80;;
11614;SDS011;5863;52.832;4.758;2022-09-25T08:07:02;2.67;;;0.75;;
11614;SDS011;5863;52.832;4.758;2022-09-25T08:09:29;2.70;;;1.00;;
11614;SDS011;5863;52.832;4.758;2022-09-25T08:11:56;3.08;;;0.90;;
11614;SDS011;5863;52.832;4.758;2022-09-25T08:14:23;2.40;;;0.80;;
11614;SDS011;5863;52.832;4.758;2022-09-25T08:16:49;1.65;;;0.75;;
11614;SDS011;5863;52.832;4.758;2022-09-25T08:19:19;1.63;;;0.80;;
11614;SDS011;5863;52.832;4.758;2022-09-25T08:21:59;1.23;;;0.75;;
11614;SDS011;5863;52.832;4.758;2022-09-25T08:24:26;5.43;;;0.80;;
11614;SDS011;5863;52.832;4.758;2022-09-25T08:26:53;4.47;;;0.85;;
11614;SDS011;5863;52.832;4.758;2022-09-25T08:29:19;3.30;;;0.82;;
11614;SDS011;5863;52.832;4.758;2022-09-25T08:31:46;4.07;;;0.63;;
11614;SDS011;5863;52.832;4.758;2022-09-25T08:34:13;2.55;;;0.75;;
11614;SDS011;5863;52.832;4.758;2022-09-25T08:36:47;2.30;;;0.85;;
11614;SDS011;5863;52.832;4.758;2022-09-25T08:39:16;2.50;;;0.70;;
11614;SDS011;5863;52.832;4.758;2022-09-25T08:41:45;2.30;;;0.88;;
11614;SDS011;5863;52.832;4.758;2022-09-25T08:44:18;3.55;;;0.65;;
11614;SDS011;5863;52.832;4.758;2022-09-25T08:46:50;1.73;;;0.73;;
11614;SDS011;5863;52.832;4.758;2022-09-25T08:49:37;2.05;;;0.60;;
11614;SDS011;5863;52.832;4.758;2022-09-25T08:52:11;1.83;;;0.70;;
11614;SDS011;5863;52.832;4.758;2022-09-25T08:54:43;4.03;;;1.10;;
11614;SDS011;5863;52.832;4.758;2022-09-25T08:57:14;3.42;;;1.27;;
11614;SDS011;5863;52.832;4.758;2022-09-25T08:59:50;1.98;;;0.82;;
11614;SDS011;5863;52.832;4.758;2022-09-25T09:02:20;3.15;;;0.80;;
11614;SDS011;5863;52.832;4.758;2022-09-25T09:04:49;1.10;;;0.73;;
11614;SDS011;5863;52.832;4.758;2022-09-25T09:07:19;3.08;;;0.57;;
11614;SDS011;5863;52.832;4.758;2022-09-25T09:09:51;2.58;;;0.50;;
11614;SDS011;5863;52.832;4.758;2022-09-25T09:12:24;1.77;;;0.65;;
11614;SDS011;5863;52.832;4.758;2022-09-25T09:15:04;3.10;;;1.05;;
11614;SDS011;5863;52.832;4.758;2022-09-25T09:17:54;1.45;;;0.73;;
11614;SDS011;5863;52.832;4.758;2022-09-25T09:20:26;2.10;;;0.70;;
11614;SDS011;5863;52.832;4.758;2022-09-25T09:23:01;4.05;;;1.00;;
11614;SDS011;5863;52.832;4.758;2022-09-25T09:25:32;3.22;;;0.90;;
11614;SDS011;5863;52.832;4.758;2022-09-25T09:28:17;3.92;;;0.65;;
11614;SDS011;5863;52.832;4.758;2022-09-25T09:30:58;3.22;;;1.17;;
11614;SDS011;5863;52.832;4.758;2022-09-25T09:33:36;2.72;;;1.40;;
11614;SDS011;5863;52.832;4.758;2022-09-25T09:36:14;3.10;;;1.98;;
11614;SDS011;5863;52.832;4.758;2022-09-25T09:38:52;3.90;;;1.42;;
11614;SDS011;5863;52.832;4.758;2022-09-25T09:41:39;1.73;;;0.70;;
11614;SDS011;5863;52.832;4.758;2022-09-25T09:44:19;2.60;;;0.80;;
11614;SDS011;5863;52.832;4.758;2022-09-25T09:47:00;7.68;;;1.48;;
11614;SDS011;5863;52.832;4.758;2022-09-25T09:49:32;3.13;;;0.85;;
11614;SDS011;5863;52.832;4.758;2022-09-25T09:52:06;1.48;;;0.70;;
11614;SDS011;5863;52.832;4.758;2022-09-25T09:54:39;5.75;;;1.02;;
11614;SDS011;5863;52.832;4.758;2022-09-25T09:57:12;3.38;;;0.70;;
11614;SDS011;5863;52.832;4.758;2022-09-25T09:59:44;4.07;;;0.80;;
11614;SDS011;5863;52.832;4.758;2022-09-25T10:02:28;2.40;;;0.88;;
11614;SDS011;5863;52.832;4.758;2022-09-25T10:04:57;2.95;;;0.75;;
11614;SDS011;5863;52.832;4.758;2022-09-25T10:07:27;1.50;;;0.52;;
11614;SDS011;5863;52.832;4.758;2022-09-25T10:09:59;3.22;;;1.15;;
11614;SDS011;5863;52.832;4.758;2022-09-25T10:12:28;3.03;;;1.00;;
11614;SDS011;5863;52.832;4.758;2022-09-25T10:14:58;3.83;;;1.08;;
11614;SDS011;5863;52.832;4.758;2022-09-25T10:17:28;1.58;;;0.73;;
11614;SDS011;5863;52.832;4.758;2022-09-25T10:19:56;6.38;;;0.90;;
11614;SDS011;5863;52.832;4.758;2022-09-25T10:22:26;3.30;;;0.90;;
11614;SDS011;5863;52.832;4.758;2022-09-25T10:24:58;2.35;;;0.75;;
11614;SDS011;5863;52.832;4.758;2022-09-25T10:27:28;1.33;;;0.63;;
11614;SDS011;5863;52.832;4.758;2022-09-25T10:30:11;3.30;;;0.85;;
11614;SDS011;5863;52.832;4.758;2022-09-25T10:32:45;1.92;;;0.80;;
11614;SDS011;5863;52.832;4.758;2022-09-25T10:35:19;2.97;;;0.75;;
11614;SDS011;5863;52.832;4.758;2022-09-25T10:37:47;1.95;;;0.65;;
11614;SDS011;5863;52.832;4.758;2022-09-25T10:40:21;2.22;;;0.55;;
11614;SDS011;5863;52.832;4.758;2022-09-25T10:43:02;2.47;;;0.80;;
11614;SDS011;5863;52.832;4.758;2022-09-25T10:45:32;1.88;;;0.75;;
11614;SDS011;5863;52.832;4.758;2022-09-25T10:48:00;1.65;;;0.70;;
11614;SDS011;5863;52.832;4.758;2022-09-25T10:51:05;3.13;;;0.60;;
11614;SDS011;5863;52.832;4.758;2022-09-25T10:53:33;1.35;;;0.70;;
11614;SDS011;5863;52.832;4.758;2022-09-25T10:56:01;3.00;;;0.70;;
11614;SDS011;5863;52.832;4.758;2022-09-25T10:58:35;4.13;;;0.60;;
11614;SDS011;5863;52.832;4.758;2022-09-25T11:01:07;1.35;;;0.57;;
11614;SDS011;5863;52.832;4.758;2022-09-25T11:03:38;2.17;;;0.77;;
11614;SDS011;5863;52.832;4.758;2022-09-25T11:06:15;3.90;;;0.68;;
11614;SDS011;5863;52.832;4.758;2022-09-25T11:08:45;3.05;;;0.70;;
11614;SDS011;5863;52.832;4.758;2022-09-25T11:11:13;1.95;;;0.60;;
11614;SDS011;5863;52.832;4.758;2022-09-25T11:13:50;4.07;;;0.60;;
11614;SDS011;5863;52.832;4.758;2022-09-25T11:16:19;2.90;;;0.60;;
11614;SDS011;5863;52.832;4.758;2022-09-25T11:18:47;1.00;;;0.50;;
11614;SDS011;5863;52.832;4.758;2022-09-25T11:21:17;1.75;;;0.57;;
11614;SDS011;5863;52.832;4.758;2022-09-25T11:23:56;1.10;;;0.60;;
11614;SDS011;5863;52.832;4.758;2022-09-25T11:26:33;1.95;;;0.50;;
11614;SDS011;5863;52.832;4.758;2022-09-25T11:29:06;1.08;;;0.52;;
11614;SDS011;5863;52.832;4.758;2022-09-25T11:31:40;3.75;;;0.73;;
11614;SDS011;5863;52.832;4.758;2022-09-25T11:34:11;1.40;;;0.75;;
11614;SDS011;5863;52.832;4.758;2022-09-25T11:36:44;1.00;;;0.57;;
11614;SDS011;5863;52.832;4.758;2022-09-25T11:39:17;1.65;;;0.50;;
11614;SDS011;5863;52.832;4.758;2022-09-25T11:42:13;2.35;;;0.50;;
11614;SDS011;5863;52.832;4.758;2022-09-25T11:44:50;1.50;;;0.65;;
11614;SDS011;5863;52.832;4.758;2022-09-25T11:47:24;0.40;;;0.35;;
11614;SDS011;5863;52.832;4.758;2022-09-25T11:49:54;1.30;;;0.50;;
11614;SDS011;5863;52.832;4.758;2022-09-25T11:52:35;1.67;;;0.57;;
11614;SDS011;5863;52.832;4.758;2022-09-25T11:58:09;0.65;;;0.60;;
11614;SDS011;5863;52.832;4.758;2022-09-25T12:01:03;1.90;;;0.60;;
11614;SDS011;5863;52.832;4.758;2022-09-25T12:03:58;4.97;;;1.00;;
11614;SDS011;5863;52.832;4.758;2022-09-25T12:09:42;1.80;;;0.90;;
11614;SDS011;5863;52.832;4.758;2022-09-25T12:12:23;0.82;;;0.30;;
11614;SDS011;5863;52.832;4.758;2022-09-25T12:15:04;1.50;;;0.57;;
11614;SDS011;5863;52.832;4.758;2022-09-25T12:17:52;1.48;;;0.65;;
11614;SDS011;5863;52.832;4.758;2022-09-25T12:20:26;2.97;;;0.50;;
11614;SDS011;5863;52.832;4.758;2022-09-25T12:23:05;0.30;;;0.30;;
11614;SDS011;5863;52.832;4.758;2022-09-25T12:25:44;2.47;;;0.70;;
11614;SDS011;5863;52.832;4.758;2022-09-25T12:28:24;0.75;;;0.40;;
11614;SDS011;5863;52.832;4.758;2022-09-25T12:31:01;2.42;;;0.70;;
11614;SDS011;5863;52.832;4.758;2022-09-25T12:33:37;1.30;;;0.40;;
11614;SDS011;5863;52.832;4.758;2022-09-25T12:36:13;1.08;;;0.50;;
11614;SDS011;5863;52.832;4.758;2022-09-25T12:38:44;2.40;;;0.70;;
11614;SDS011;5863;52.832;4.758;2022-09-25T12:41:21;0.80;;;0.40;;
11614;SDS011;5863;52.832;4.758;2022-09-25T12:43:54;3.58;;;0.70;;
11614;SDS011;5863;52.832;4.758;2022-09-25T12:46:26;1.55;;;0.47;;
11614;SDS011;5863;52.832;4.758;2022-09-25T12:49:00;1.75;;;0.60;;
11614;SDS011;5863;52.832;4.758;2022-09-25T12:51:33;0.75;;;0.30;;
11614;SDS011;5863;52.832;4.758;2022-09-25T12:54:05;1.80;;;0.50;;
11614;SDS011;5863;52.832;4.758;2022-09-25T12:56:48;0.68;;;0.40;;
11614;SDS011;5863;52.832;4.758;2022-09-25T12:59:20;1.88;;;0.70;;
11614;SDS011;5863;52.832;4.758;2022-09-25T13:01:54;1.00;;;0.45;;
11614;SDS011;5863;52.832;4.758;2022-09-25T13:04:31;2.20;;;0.65;;
11614;SDS011;5863;52.832;4.758;2022-09-25T13:07:09;1.23;;;0.50;;
11614;SDS011;5863;52.832;4.758;2022-09-25T13:09:42;0.80;;;0.40;;
11614;SDS011;5863;52.832;4.758;2022-09-25T13:12:14;1.42;;;0.50;;
11614;SDS011;5863;52.832;4.758;2022-09-25T13:14:50;0.70;;;0.50;;
11614;SDS011;5863;52.832;4.758;2022-09-25T13:17:20;0.88;;;0.50;;
11614;SDS011;5863;52.832;4.758;2022-09-25T13:19:49;0.50;;;0.50;;
11614;SDS011;5863;52.832;4.758;2022-09-25T13:22:17;1.75;;;0.85;;
11614;SDS011;5863;52.832;4.758;2022-09-25T13:24:45;0.95;;;0.50;;
11614;SDS011;5863;52.832;4.758;2022-09-25T13:27:16;3.25;;;0.50;;
11614;SDS011;5863;52.832;4.758;2022-09-25T13:29:49;0.80;;;0.40;;
11614;SDS011;5863;52.832;4.758;2022-09-25T13:32:20;2.30;;;0.43;;
11614;SDS011;5863;52.832;4.758;2022-09-25T13:34:54;0.22;;;0.20;;
11614;SDS011;5863;52.832;4.758;2022-09-25T13:37:24;0.55;;;0.35;;
11614;SDS011;5863;52.832;4.758;2022-09-25T13:39:53;4.75;;;0.45;;
11614;SDS011;5863;52.832;4.758;2022-09-25T13:42:38;5.82;;;0.30;;
11614;SDS011;5863;52.832;4.758;2022-09-25T13:45:26;1.17;;;0.50;;
11614;SDS011;5863;52.832;4.758;2022-09-25T13:48:01;0.73;;;0.65;;
11614;SDS011;5863;52.832;4.758;2022-09-25T13:50:38;1.75;;;0.50;;
11614;SDS011;5863;52.832;4.758;2022-09-25T13:53:19;2.35;;;0.60;;
11614;SDS011;5863;52.832;4.758;2022-09-25T13:58:58;1.52;;;0.60;;
11614;SDS011;5863;52.832;4.758;2022-09-25T14:01:31;1.17;;;0.47;;
11614;SDS011;5863;52.832;4.758;2022-09-25T14:04:06;1.88;;;0.35;;
11614;SDS011;5863;52.832;4.758;2022-09-25T14:06:36;1.15;;;0.60;;
11614;SDS011;5863;52.832;4.758;2022-09-25T14:09:06;1.55;;;0.47;;
11614;SDS011;5863;52.832;4.758;2022-09-25T14:11:35;0.63;;;0.40;;
11614;SDS011;5863;52.832;4.758;2022-09-25T14:14:04;1.50;;;0.55;;
11614;SDS011;5863;52.832;4.758;2022-09-25T14:16:43;3.00;;;0.52;;
11614;SDS011;5863;52.832;4.758;2022-09-25T14:19:16;1.48;;;0.50;;
11614;SDS011;5863;52.832;4.758;2022-09-25T14:21:46;0.70;;;0.47;;
11614;SDS011;5863;52.832;4.758;2022-09-25T14:24:17;0.80;;;0.75;;
11614;SDS011;5863;52.832;4.758;2022-09-25T14:26:45;1.92;;;0.50;;
11614;SDS011;5863;52.832;4.758;2022-09-25T14:29:13;4.10;;;0.88;;
11614;SDS011;5863;52.832;4.758;2022-09-25T14:31:44;2.30;;;0.77;;
11614;SDS011;5863;52.832;4.758;2022-09-25T14:34:22;5.50;;;0.70;;
11614;SDS011;5863;52.832;4.758;2022-09-25T14:37:01;3.65;;;0.80;;
11614;SDS011;5863;52.832;4.758;2022-09-25T14:39:42;3.65;;;0.70;;
11614;SDS011;5863;52.832;4.758;2022-09-25T14:42:22;1.42;;;0.50;;
11614;SDS011;5863;52.832;4.758;2022-09-25T14:45:06;2.28;;;0.55;;
11614;SDS011;5863;52.832;4.758;2022-09-25T14:47:46;1.85;;;0.60;;
11614;SDS011;5863;52.832;4.758;2022-09-25T14:50:16;2.15;;;0.70;;
11614;SDS011;5863;52.832;4.758;2022-09-25T14:52:48;1.13;;;0.65;;
11614;SDS011;5863;52.832;4.758;2022-09-25T14:55:19;1.77;;;0.47;;
11614;SDS011;5863;52.832;4.758;2022-09-25T14:57:49;0.95;;;0.50;;
11614;SDS011;5863;52.832;4.758;2022-09-25T15:00:17;1.48;;;0.60;;
11614;SDS011;5863;52.832;4.758;2022-09-25T15:02:48;2.95;;;0.85;;
11614;SDS011;5863;52.832;4.758;2022-09-25T15:05:18;1.48;;;0.47;;
11614;SDS011;5863;52.832;4.758;2022-09-25T15:07:56;0.73;;;0.40;;
11614;SDS011;5863;52.832;4.758;2022-09-25T15:10:28;2.60;;;0.70;;
11614;SDS011;5863;52.832;4.758;2022-09-25T15:13:06;2.55;;;0.50;;
11614;SDS011;5863;52.832;4.758;2022-09-25T15:15:39;2.20;;;0.60;;
11614;SDS011;5863;52.832;4.758;2022-09-25T15:18:27;1.48;;;0.60;;
11614;SDS011;5863;52.832;4.758;2022-09-25T15:20:54;2.00;;;0.68;;
11614;SDS011;5863;52.832;4.758;2022-09-25T15:23:22;1.15;;;0.45;;
11614;SDS011;5863;52.832;4.758;2022-09-25T15:25:50;1.05;;;0.30;;
11614;SDS011;5863;52.832;4.758;2022-09-25T15:28:19;2.38;;;0.73;;
11614;SDS011;5863;52.832;4.758;2022-09-25T15:30:53;1.75;;;0.30;;
11614;SDS011;5863;52.832;4.758;2022-09-25T15:33:23;2.50;;;0.57;;
11614;SDS011;5863;52.832;4.758;2022-09-25T15:35:54;1.27;;;0.60;;